createdAt,value
2019-05-22T00:00:23.736Z,76.16
2019-05-22T00:02:54.940Z,75.64
2019-05-22T00:05:31.774Z,75.82
2019-05-22T00:08:05.227Z,75.90
2019-05-22T00:10:38.609Z,75.75
2019-05-22T00:13:14.162Z,76.12
2019-05-22T00:15:48.415Z,75.89
2019-05-22T00:18:19.614Z,75.93
2019-05-22T00:20:51.484Z,75.78
2019-05-22T00:23:22.603Z,76.02
2019-05-22T00:25:54.686Z,75.87
2019-05-22T00:28:27.043Z,75.74
2019-05-22T00:30:59.220Z,75.68
2019-05-22T00:33:31.340Z,75.61
2019-05-22T00:36:02.414Z,75.95
2019-05-22T00:38:34.088Z,75.92
2019-05-22T00:41:10.737Z,75.75
2019-05-22T00:43:44.624Z,75.39
2019-05-22T00:46:20.561Z,75.36
2019-05-22T00:48:54.506Z,75.89
2019-05-22T00:51:41.054Z,75.90
2019-05-22T00:54:22.025Z,76.19
2019-05-22T00:57:03.947Z,75.80
2019-05-22T00:59:37.852Z,75.75
2019-05-22T01:02:12.588Z,75.82
2019-05-22T01:04:46.734Z,76.00
2019-05-22T01:07:17.862Z,75.80
2019-05-22T01:09:52.207Z,75.38
2019-05-22T01:12:32.014Z,75.46
2019-05-22T01:15:08.371Z,75.67
2019-05-22T01:17:41.601Z,75.78
2019-05-22T01:20:16.606Z,76.14
2019-05-22T01:22:51.518Z,76.20
2019-05-22T01:25:22.863Z,75.88
2019-05-22T01:27:55.666Z,76.09
2019-05-22T01:30:34.981Z,76.08
2019-05-22T01:33:10.890Z,75.83
2019-05-22T01:35:49.453Z,75.65
2019-05-22T01:38:21.194Z,75.95
2019-05-22T01:40:57.679Z,75.71
2019-05-22T01:43:30.416Z,75.75
2019-05-22T01:46:03.313Z,75.64
2019-05-22T01:48:39.245Z,75.64
2019-05-22T01:51:11.931Z,75.84
2019-05-22T01:53:43.897Z,75.99
2019-05-22T01:56:16.929Z,76.40
2019-05-22T01:58:49.886Z,75.58
2019-05-22T02:01:24.473Z,75.64
2019-05-22T02:03:56.924Z,75.63
2019-05-22T02:06:28.509Z,75.78
2019-05-22T02:09:24.003Z,75.59
2019-05-22T02:12:08.032Z,75.62
2019-05-22T02:14:43.821Z,75.45
2019-05-22T02:17:15.737Z,76.16
2019-05-22T02:19:48.374Z,76.03
2019-05-22T02:22:20.064Z,75.79
2019-05-22T02:24:52.051Z,75.85
2019-05-22T02:27:24.202Z,75.43
2019-05-22T02:29:56.160Z,75.72
2019-05-22T02:32:29.355Z,75.55
2019-05-22T02:35:01.902Z,75.33
2019-05-22T02:37:34.735Z,75.31
2019-05-22T02:40:09.194Z,75.91
2019-05-22T02:42:40.786Z,75.74
2019-05-22T02:45:13.303Z,75.55
2019-05-22T02:47:45.558Z,75.56
2019-05-22T02:50:18.315Z,75.70
2019-05-22T02:52:50.271Z,75.54
2019-05-22T02:55:21.913Z,75.82
2019-05-22T02:57:53.507Z,75.80
2019-05-22T03:00:26.962Z,75.78
2019-05-22T03:02:58.604Z,75.46
2019-05-22T03:05:31.302Z,75.48
2019-05-22T03:08:02.481Z,76.05
2019-05-22T03:10:34.931Z,75.57
2019-05-22T03:13:08.623Z,75.42
2019-05-22T03:15:41.113Z,75.43
2019-05-22T03:18:14.054Z,75.32
2019-05-22T03:20:45.271Z,75.13
2019-05-22T03:23:37.885Z,75.34
2019-05-22T03:26:10.601Z,75.51
2019-05-22T03:28:42.995Z,75.32
2019-05-22T03:31:16.000Z,75.35
2019-05-22T03:33:47.413Z,75.36
2019-05-22T03:36:21.206Z,74.89
2019-05-22T03:38:52.989Z,74.57
2019-05-22T03:41:25.036Z,74.58
2019-05-22T03:43:58.456Z,74.75
2019-05-22T03:46:43.850Z,74.71
2019-05-22T03:49:30.079Z,74.96
2019-05-22T03:51:53.625Z,74.88
2019-05-22T03:54:26.434Z,74.57
2019-05-22T03:56:57.844Z,74.73
2019-05-22T03:59:28.913Z,74.76
2019-05-22T04:02:02.336Z,74.97
2019-05-22T04:04:39.411Z,74.91
2019-05-22T04:07:23.761Z,75.03
2019-05-22T04:09:55.188Z,75.38
2019-05-22T04:12:27.447Z,74.88
2019-05-22T04:14:58.888Z,74.71
2019-05-22T04:17:31.497Z,74.64
2019-05-22T04:20:03.854Z,75.63
2019-05-22T04:22:35.081Z,75.54
2019-05-22T04:25:08.236Z,75.39
2019-05-22T04:27:41.489Z,75.37
2019-05-22T04:30:14.466Z,75.48
2019-05-22T04:32:46.391Z,75.41
2019-05-22T04:35:20.563Z,75.30
2019-05-22T04:37:52.780Z,74.74
2019-05-22T04:40:56.830Z,74.77
2019-05-22T04:43:32.633Z,74.51
2019-05-22T04:46:06.400Z,74.41
2019-05-22T04:48:38.549Z,74.53
2019-05-22T04:51:31.130Z,74.60
2019-05-22T04:54:02.360Z,74.96
2019-05-22T04:56:33.622Z,74.37
2019-05-22T04:59:05.436Z,74.36
2019-05-22T05:01:37.451Z,74.60
2019-05-22T05:04:08.782Z,74.70
2019-05-22T05:06:41.411Z,74.89
2019-05-22T05:09:14.843Z,74.42
2019-05-22T05:11:46.406Z,74.22
2019-05-22T05:14:17.784Z,75.17
2019-05-22T05:16:49.167Z,74.82
2019-05-22T05:19:20.448Z,75.09
2019-05-22T05:21:51.836Z,75.01
2019-05-22T05:24:23.253Z,75.07
2019-05-22T05:26:55.575Z,74.51
2019-05-22T05:29:31.105Z,74.20
2019-05-22T05:32:02.954Z,74.44
2019-05-22T05:34:48.645Z,74.75
2019-05-22T05:37:23.038Z,74.44
2019-05-22T05:40:39.317Z,74.63
2019-05-22T05:43:14.343Z,74.46
2019-05-22T05:45:48.762Z,75.28
2019-05-22T05:48:23.450Z,75.47
2019-05-22T05:51:27.422Z,75.18
2019-05-22T05:54:03.009Z,75.00
2019-05-22T05:56:35.707Z,74.94
2019-05-22T05:59:09.296Z,74.60
2019-05-22T06:01:44.882Z,74.58
2019-05-22T06:04:38.140Z,74.79
2019-05-22T06:07:22.197Z,74.75
2019-05-22T06:10:53.836Z,75.23
2019-05-22T06:13:25.314Z,74.77
2019-05-22T06:17:04.532Z,74.79
2019-05-22T06:19:37.869Z,74.58
2019-05-22T06:22:10.204Z,74.39
2019-05-22T06:25:04.295Z,74.59
2019-05-22T06:27:44.455Z,74.12
2019-05-22T06:30:19.274Z,74.41
2019-05-22T06:33:39.759Z,74.82
2019-05-22T06:36:16.600Z,74.56
2019-05-22T06:39:07.703Z,74.15
2019-05-22T06:41:40.987Z,74.21
2019-05-22T06:44:46.375Z,74.15
2019-05-22T06:47:25.902Z,74.84
2019-05-22T06:49:58.525Z,74.89
2019-05-22T06:52:30.106Z,74.76
2019-05-22T06:55:02.118Z,74.80
2019-05-22T06:57:34.464Z,74.88
2019-05-22T07:00:16.770Z,74.54
2019-05-22T07:02:48.005Z,74.46
2019-05-22T07:05:19.584Z,74.38
2019-05-22T07:07:51.137Z,74.05
2019-05-22T07:10:23.366Z,73.96
2019-05-22T07:12:54.782Z,73.88
2019-05-22T07:15:39.472Z,73.68
2019-05-22T07:18:13.672Z,73.59
2019-05-22T07:20:46.855Z,74.38
2019-05-22T07:23:22.868Z,73.70
2019-05-22T07:25:54.823Z,73.50
2019-05-22T07:28:27.874Z,73.41
2019-05-22T07:30:59.359Z,73.01
2019-05-22T07:33:31.323Z,72.85
2019-05-22T07:36:09.947Z,72.57
2019-05-22T07:38:37.251Z,73.01
2019-05-22T07:41:09.742Z,72.57
2019-05-22T07:43:42.266Z,72.46
2019-05-22T07:46:13.559Z,72.98
2019-05-22T07:48:44.642Z,72.23
2019-05-22T07:51:16.237Z,71.92
2019-05-22T07:53:47.491Z,71.80
2019-05-22T07:56:18.657Z,72.11
2019-05-22T07:58:50.035Z,71.77
2019-05-22T08:01:22.511Z,71.80
2019-05-22T08:03:55.128Z,71.80
2019-05-22T08:06:26.810Z,71.64
2019-05-22T08:09:00.064Z,71.64
2019-05-22T08:11:31.994Z,71.56
2019-05-22T08:14:03.365Z,72.32
2019-05-22T08:16:35.443Z,71.85
2019-05-22T08:19:06.531Z,72.82
2019-05-22T08:21:38.015Z,71.12
2019-05-22T08:24:10.407Z,69.67
2019-05-22T08:26:53.977Z,70.05
2019-05-22T08:29:17.142Z,70.15
2019-05-22T08:31:48.599Z,69.65
2019-05-22T08:34:20.020Z,69.45
2019-05-22T08:36:51.347Z,70.34
2019-05-22T08:39:23.053Z,70.36
2019-05-22T08:41:54.733Z,68.93
2019-05-22T08:44:26.545Z,68.97
2019-05-22T08:46:57.988Z,68.85
2019-05-22T08:49:29.323Z,68.77
2019-05-22T08:52:00.885Z,69.90
2019-05-22T08:54:33.655Z,69.63
2019-05-22T08:57:06.689Z,69.61
2019-05-22T08:59:37.677Z,68.00
2019-05-22T09:02:09.296Z,67.77
2019-05-22T09:04:41.535Z,66.96
2019-05-22T09:07:12.960Z,67.38
2019-05-22T09:09:44.133Z,67.09
2019-05-22T09:12:16.450Z,67.34
2019-05-22T09:14:47.820Z,68.08
2019-05-22T09:17:21.237Z,68.71
2019-05-22T09:19:52.865Z,68.04
2019-05-22T09:22:39.630Z,68.41
2019-05-22T09:24:56.776Z,67.38
2019-05-22T09:27:28.883Z,67.14
2019-05-22T09:29:59.959Z,67.57
2019-05-22T09:32:32.290Z,67.51
2019-05-22T09:35:03.869Z,67.62
2019-05-22T09:37:34.990Z,68.13
2019-05-22T09:40:06.773Z,68.29
2019-05-22T09:42:38.140Z,67.64
2019-05-22T09:45:10.120Z,66.93
2019-05-22T09:47:42.096Z,67.51
2019-05-22T09:50:14.865Z,67.58
2019-05-22T09:52:57.040Z,67.28
2019-05-22T09:55:20.856Z,67.48
2019-05-22T09:57:52.379Z,67.92
2019-05-22T10:00:23.723Z,66.21
2019-05-22T10:02:54.849Z,67.07
2019-05-22T10:05:26.163Z,66.34
2019-05-22T10:08:01.533Z,66.32
2019-05-22T10:10:33.111Z,66.39
2019-05-22T10:13:04.755Z,64.85
2019-05-22T10:15:36.244Z,65.07
2019-05-22T10:18:07.764Z,66.02
2019-05-22T10:20:39.530Z,66.39
2019-05-22T10:23:16.021Z,64.36
2019-05-22T10:25:44.814Z,66.26
2019-05-22T10:28:16.286Z,65.72
2019-05-22T10:30:47.728Z,64.53
2019-05-22T10:33:19.662Z,64.11
2019-05-22T10:35:51.406Z,64.99
2019-05-22T10:40:52.574Z,64.50
2019-05-22T10:43:23.765Z,65.21
2019-05-22T10:45:54.839Z,65.64
2019-05-22T10:48:26.145Z,65.33
2019-05-22T10:50:57.278Z,63.63
2019-05-22T10:53:33.569Z,63.58
2019-05-22T10:56:01.442Z,62.71
2019-05-22T10:58:32.681Z,63.06
2019-05-22T11:01:03.947Z,62.67
2019-05-22T11:03:35.589Z,63.40
2019-05-22T11:06:08.023Z,61.81
2019-05-22T11:08:41.970Z,61.95
2019-05-22T11:11:13.575Z,62.26
2019-05-22T11:13:59.795Z,62.18
2019-05-22T11:16:18.164Z,60.68
2019-05-22T11:18:50.061Z,60.87
2019-05-22T11:21:21.582Z,61.34
2019-05-22T11:23:53.477Z,62.91
2019-05-22T11:26:24.592Z,63.18
2019-05-22T11:28:55.977Z,63.20
2019-05-22T11:31:27.599Z,61.52
2019-05-22T11:33:58.817Z,61.33
2019-05-22T11:36:30.057Z,61.70
2019-05-22T11:39:01.307Z,62.06
2019-05-22T11:41:33.518Z,61.96
2019-05-22T11:44:05.284Z,59.88
2019-05-22T11:46:36.648Z,59.51
2019-05-22T11:49:08.165Z,58.28
2019-05-22T11:51:39.706Z,58.41
2019-05-22T11:54:12.046Z,59.07
2019-05-22T11:56:43.214Z,59.41
2019-05-22T11:59:14.590Z,59.05
2019-05-22T12:01:46.642Z,58.18
2019-05-22T12:04:17.749Z,57.77
2019-05-22T12:06:53.588Z,57.07
2019-05-22T12:09:23.236Z,58.07
2019-05-22T12:11:54.489Z,58.60
2019-05-22T12:14:25.586Z,59.68
2019-05-22T12:16:57.571Z,60.06
2019-05-22T12:19:28.772Z,58.92
2019-05-22T12:22:00.077Z,58.96
2019-05-22T12:24:36.810Z,58.08
2019-05-22T12:27:07.647Z,56.72
2019-05-22T12:29:39.253Z,57.98
2019-05-22T12:32:10.543Z,56.90
2019-05-22T12:34:42.980Z,56.62
2019-05-22T12:37:14.227Z,57.54
2019-05-22T12:39:45.931Z,59.84
2019-05-22T12:42:17.972Z,58.29
2019-05-22T12:44:49.688Z,58.04
2019-05-22T12:47:23.055Z,56.50
2019-05-22T12:49:54.765Z,57.22
2019-05-22T12:52:25.983Z,55.41
2019-05-22T12:54:59.106Z,56.35
2019-05-22T12:57:30.820Z,58.17
2019-05-22T13:00:03.083Z,55.43
2019-05-22T13:02:36.956Z,54.08
2019-05-22T13:05:13.998Z,55.36
2019-05-22T13:07:42.601Z,55.63
2019-05-22T13:10:15.575Z,55.01
2019-05-22T13:12:46.891Z,56.71
2019-05-22T13:15:19.179Z,54.17
2019-05-22T13:17:51.255Z,54.75
2019-05-22T13:20:41.277Z,53.57
2019-05-22T13:23:01.033Z,52.87
2019-05-22T13:25:37.082Z,54.17
2019-05-22T13:28:11.553Z,52.96
2019-05-22T13:30:44.846Z,54.47
2019-05-22T13:33:19.383Z,53.51
2019-05-22T13:35:51.583Z,52.05
2019-05-22T13:38:23.650Z,52.51
2019-05-22T13:40:56.329Z,53.71
2019-05-22T13:43:28.667Z,53.94
2019-05-22T13:45:59.996Z,54.73
2019-05-22T13:48:32.402Z,54.51
2019-05-22T13:51:05.265Z,54.33
2019-05-22T13:53:36.866Z,54.46
2019-05-22T13:56:08.728Z,52.39
2019-05-22T13:58:39.975Z,53.08
2019-05-22T14:01:11.933Z,52.44
2019-05-22T14:03:43.072Z,54.26
2019-05-22T14:06:14.466Z,53.12
2019-05-22T14:08:45.534Z,53.09
2019-05-22T14:11:17.025Z,53.05
2019-05-22T14:13:49.459Z,52.36
2019-05-22T14:16:21.653Z,52.38
2019-05-22T14:18:52.841Z,52.41
2019-05-22T14:21:24.014Z,51.56
2019-05-22T14:23:55.085Z,51.11
2019-05-22T14:26:29.776Z,50.09
2019-05-22T14:28:59.622Z,51.86
2019-05-22T14:31:30.854Z,50.76
2019-05-22T14:34:02.698Z,51.50
2019-05-22T14:36:34.102Z,50.65
2019-05-22T14:39:08.297Z,49.40
2019-05-22T14:41:39.398Z,49.48
2019-05-22T14:44:10.897Z,49.82
2019-05-22T14:46:43.006Z,50.06
2019-05-22T14:49:14.103Z,51.42
2019-05-22T14:51:45.865Z,49.39
2019-05-22T14:54:19.502Z,49.01
2019-05-22T14:56:50.886Z,49.22
2019-05-22T14:59:22.237Z,50.78
2019-05-22T15:01:53.642Z,50.94
2019-05-22T15:04:25.457Z,51.62
2019-05-22T15:06:56.709Z,52.09
2019-05-22T15:09:27.880Z,51.59
2019-05-22T15:11:58.992Z,51.69
2019-05-22T15:14:30.359Z,52.96
2019-05-22T15:17:01.529Z,54.56
2019-05-22T15:19:32.981Z,54.76
2019-05-22T15:22:05.384Z,52.47
2019-05-22T15:24:36.729Z,53.54
2019-05-22T15:27:09.495Z,52.86
2019-05-22T15:29:40.491Z,53.88
2019-05-22T15:32:14.049Z,54.28
2019-05-22T15:34:46.593Z,54.64
2019-05-22T15:37:20.795Z,55.81
2019-05-22T15:39:52.869Z,56.52
2019-05-22T15:42:45.001Z,56.41
2019-05-22T15:45:19.854Z,55.92
2019-05-22T15:47:57.107Z,55.43
2019-05-22T15:50:31.968Z,56.25
2019-05-22T15:53:11.636Z,56.81
2019-05-22T15:55:44.146Z,57.62
2019-05-22T15:58:18.089Z,57.57
2019-05-22T16:00:50.431Z,56.34
2019-05-22T16:03:24.441Z,56.29
2019-05-22T16:05:56.622Z,56.75
2019-05-22T16:08:29.330Z,57.24
2019-05-22T16:11:02.923Z,56.81
2019-05-22T16:13:34.872Z,56.82
2019-05-22T16:16:09.753Z,55.83
2019-05-22T16:18:43.851Z,55.78
2019-05-22T16:21:16.953Z,56.92
2019-05-22T16:23:48.514Z,56.03
2019-05-22T16:26:19.846Z,56.63
2019-05-22T16:28:51.251Z,56.57
2019-05-22T16:31:23.764Z,56.13
2019-05-22T16:33:55.447Z,55.89
2019-05-22T16:36:26.961Z,56.04
2019-05-22T16:38:59.753Z,54.13
2019-05-22T16:41:32.435Z,55.52
2019-05-22T16:44:04.659Z,55.03
2019-05-22T16:46:35.836Z,54.75
2019-05-22T16:49:07.652Z,53.67
2019-05-22T16:51:39.177Z,52.77
2019-05-22T16:54:11.376Z,52.52
2019-05-22T16:56:43.265Z,52.52
2019-05-22T16:59:15.078Z,51.93
2019-05-22T17:01:58.775Z,52.50
2019-05-22T17:04:20.522Z,51.41
2019-05-22T17:06:51.997Z,51.98
2019-05-22T17:09:23.331Z,52.26
2019-05-22T17:11:55.716Z,52.65
2019-05-22T17:14:27.802Z,52.97
2019-05-22T17:16:58.870Z,53.14
2019-05-22T17:19:30.554Z,53.00
2019-05-22T17:22:02.198Z,53.82
2019-05-22T17:24:34.336Z,53.08
2019-05-22T17:27:07.022Z,53.06
2019-05-22T17:29:38.238Z,53.42
2019-05-22T17:32:11.635Z,53.30
2019-05-22T17:34:43.739Z,54.09
2019-05-22T17:37:18.235Z,52.93
2019-05-22T17:39:50.899Z,52.61
2019-05-22T17:42:24.943Z,53.24
2019-05-22T17:44:56.351Z,53.76
2019-05-22T17:47:27.812Z,54.29
2019-05-22T17:50:01.835Z,53.42
2019-05-22T17:52:34.063Z,53.65
2019-05-22T17:55:07.017Z,53.97
2019-05-22T17:57:39.636Z,54.57
2019-05-22T18:00:18.622Z,54.95
2019-05-22T18:02:49.782Z,55.38
2019-05-22T18:05:22.035Z,55.58
2019-05-22T18:07:53.222Z,55.83
2019-05-22T18:10:24.833Z,56.35
2019-05-22T18:12:56.052Z,56.09
2019-05-22T18:15:27.307Z,56.27
2019-05-22T18:17:59.368Z,55.95
2019-05-22T18:20:42.297Z,56.70
2019-05-22T18:23:03.875Z,56.73
2019-05-22T18:25:35.389Z,56.19
2019-05-22T18:28:08.531Z,57.01
2019-05-22T18:30:41.666Z,57.46
2019-05-22T18:33:14.457Z,58.00
2019-05-22T18:35:45.921Z,57.82
2019-05-22T18:38:17.157Z,58.06
2019-05-22T18:40:48.460Z,58.45
2019-05-22T18:43:22.881Z,59.89
2019-05-22T18:45:53.037Z,60.35
2019-05-22T18:48:24.208Z,60.47
2019-05-22T18:50:55.382Z,60.68
2019-05-22T18:53:27.132Z,60.40
2019-05-22T18:55:58.392Z,60.21
2019-05-22T18:58:29.824Z,61.22
2019-05-22T19:01:01.126Z,60.95
2019-05-22T19:03:32.715Z,61.26
2019-05-22T19:06:05.057Z,61.03
2019-05-22T19:08:36.356Z,61.40
2019-05-22T19:11:07.960Z,61.24
2019-05-22T19:13:39.193Z,61.24
2019-05-22T19:16:11.967Z,61.64
2019-05-22T19:18:43.510Z,62.08
2019-05-22T19:21:14.654Z,61.66
2019-05-22T19:23:46.055Z,62.01
2019-05-22T19:26:17.162Z,62.30
2019-05-22T19:28:48.886Z,62.11
2019-05-22T19:31:20.065Z,62.25
2019-05-22T19:33:51.135Z,62.16
2019-05-22T19:36:22.357Z,62.35
2019-05-22T19:38:53.872Z,62.03
2019-05-22T19:41:25.317Z,62.02
2019-05-22T19:43:57.012Z,62.50
2019-05-22T19:46:28.310Z,62.41
2019-05-22T19:49:00.372Z,63.33
2019-05-22T19:51:32.826Z,64.05
2019-05-22T19:54:04.423Z,64.01
2019-05-22T19:56:36.962Z,64.92
2019-05-22T19:59:09.589Z,64.64
2019-05-22T20:01:41.021Z,64.52
2019-05-22T20:04:14.084Z,64.45
2019-05-22T20:06:45.699Z,64.21
2019-05-22T20:09:17.130Z,63.81
2019-05-22T20:11:48.730Z,63.80
2019-05-22T20:14:20.443Z,63.69
2019-05-22T20:16:51.771Z,63.72
2019-05-22T20:19:22.846Z,63.61
2019-05-22T20:21:55.008Z,63.58
2019-05-22T20:24:26.261Z,63.80
2019-05-22T20:26:57.568Z,63.38
2019-05-22T20:29:29.258Z,64.46
2019-05-22T20:32:00.386Z,65.11
2019-05-22T20:34:31.795Z,65.39
2019-05-22T20:37:03.321Z,65.60
2019-05-22T20:39:36.145Z,65.47
2019-05-22T20:42:07.671Z,65.58
2019-05-22T20:44:39.881Z,65.92
2019-05-22T20:47:13.882Z,66.13
2019-05-22T20:49:47.915Z,66.18
2019-05-22T20:52:21.649Z,66.34
2019-05-22T20:54:53.766Z,65.66
2019-05-22T20:57:26.646Z,65.49
2019-05-22T20:59:58.055Z,65.16
2019-05-22T21:02:29.983Z,64.93
2019-05-22T21:05:01.556Z,64.32
2019-05-22T21:07:36.929Z,64.72
2019-05-22T21:10:09.143Z,65.28
2019-05-22T21:12:40.958Z,64.79
2019-05-22T21:15:12.717Z,65.18
2019-05-22T21:17:45.739Z,64.94
2019-05-22T21:20:18.560Z,64.98
2019-05-22T21:22:49.884Z,64.96
2019-05-22T21:25:22.031Z,65.60
2019-05-22T21:27:53.422Z,65.34
2019-05-22T21:30:26.049Z,65.39
2019-05-22T21:32:57.584Z,65.75
2019-05-22T21:35:29.870Z,66.12
2019-05-22T21:38:02.215Z,66.14
2019-05-22T21:40:33.617Z,65.69
2019-05-22T21:43:05.841Z,66.00
2019-05-22T21:45:37.845Z,67.49
2019-05-22T21:48:09.229Z,67.28
2019-05-22T21:50:41.281Z,67.20
2019-05-22T21:53:13.733Z,66.73
2019-05-22T21:55:46.865Z,67.01
2019-05-22T21:58:19.584Z,67.61
2019-05-22T22:01:13.530Z,68.13
2019-05-22T22:03:47.130Z,67.56
2019-05-22T22:06:19.417Z,67.59
2019-05-22T22:08:50.885Z,67.76
2019-05-22T22:11:25.909Z,68.04
2019-05-22T22:13:57.032Z,67.72
2019-05-22T22:16:28.071Z,68.12
2019-05-22T22:19:00.812Z,68.26
2019-05-22T22:21:31.845Z,68.92
2019-05-22T22:24:03.021Z,68.99
2019-05-22T22:26:34.608Z,68.69
2019-05-22T22:29:06.120Z,68.73
2019-05-22T22:31:39.383Z,68.81
2019-05-22T22:34:29.315Z,68.80
2019-05-22T22:37:01.255Z,67.77
2019-05-22T22:39:34.674Z,67.80
2019-05-22T22:42:07.577Z,67.42
2019-05-22T22:44:38.727Z,67.53
2019-05-22T22:47:18.326Z,67.10
2019-05-22T22:49:49.754Z,67.05
2019-05-22T22:52:20.787Z,68.12
2019-05-22T22:54:52.545Z,68.27
2019-05-22T22:57:23.950Z,67.84
2019-05-22T22:59:55.231Z,67.88
2019-05-22T23:02:30.861Z,67.78
2019-05-22T23:05:03.189Z,67.67
2019-05-22T23:07:36.556Z,67.42
2019-05-22T23:10:11.815Z,69.31
2019-05-22T23:12:44.913Z,68.75
2019-05-22T23:15:19.046Z,68.50
2019-05-22T23:17:50.626Z,68.44
2019-05-22T23:20:19.746Z,68.19
2019-05-22T23:22:49.371Z,67.60
2019-05-22T23:25:21.224Z,68.30
2019-05-22T23:27:52.626Z,67.95
2019-05-22T23:30:23.895Z,67.89
2019-05-22T23:32:55.191Z,67.12
2019-05-22T23:35:26.529Z,66.54
2019-05-22T23:37:59.263Z,67.36
2019-05-22T23:40:35.294Z,67.00
2019-05-22T23:43:08.746Z,66.14
2019-05-22T23:45:40.315Z,67.19
2019-05-22T23:48:14.452Z,67.76
2019-05-22T23:50:47.241Z,67.92
2019-05-22T23:53:20.736Z,68.65
2019-05-22T23:55:51.894Z,68.71
2019-05-22T23:58:25.476Z,69.18
